createdAt,value
2024-05-09T00:01:20.072Z,29.61
2024-05-09T00:03:51.980Z,29.62
2024-05-09T00:06:26.999Z,29.63
2024-05-09T00:08:58.459Z,29.65
2024-05-09T00:11:30.156Z,29.67
2024-05-09T00:14:01.759Z,29.67
2024-05-09T00:16:33.216Z,29.70
2024-05-09T00:19:05.024Z,29.70
2024-05-09T00:21:44.569Z,29.74
2024-05-09T00:24:16.133Z,29.77
2024-05-09T00:26:47.598Z,29.80
2024-05-09T00:29:19.228Z,29.83
2024-05-09T00:31:50.871Z,29.85
2024-05-09T00:34:22.780Z,29.89
2024-05-09T00:36:57.500Z,29.91
2024-05-09T00:39:29.316Z,29.94
2024-05-09T00:42:01.380Z,29.95
2024-05-09T00:44:32.990Z,29.98
2024-05-09T00:47:04.605Z,30.01
2024-05-09T00:49:36.593Z,30.03
2024-05-09T00:52:12.710Z,30.05
2024-05-09T00:54:44.319Z,30.07
2024-05-09T00:57:15.278Z,30.09
2024-05-09T00:59:46.394Z,30.09
2024-05-09T01:02:18.573Z,30.11
2024-05-09T01:04:49.874Z,30.10
2024-05-09T01:07:24.616Z,30.13
2024-05-09T01:09:57.197Z,30.15
2024-05-09T01:12:28.020Z,30.18
2024-05-09T01:14:58.308Z,30.20
2024-05-09T01:17:30.469Z,30.24
2024-05-09T01:20:02.714Z,30.27
2024-05-09T01:22:39.472Z,30.31
2024-05-09T01:25:14.503Z,30.34
2024-05-09T01:27:46.163Z,30.38
2024-05-09T01:30:24.274Z,30.41
2024-05-09T01:32:59.450Z,30.48
2024-05-09T01:35:31.216Z,30.52
2024-05-09T01:38:02.968Z,30.60
2024-05-09T01:40:39.998Z,30.68
2024-05-09T01:43:12.407Z,30.75
2024-05-09T01:45:44.387Z,30.81
2024-05-09T01:48:16.266Z,30.86
2024-05-09T01:50:48.011Z,30.94
2024-05-09T01:53:19.742Z,30.98
2024-05-09T01:55:54.487Z,31.02
2024-05-09T01:58:25.511Z,31.08
2024-05-09T02:00:56.713Z,31.13
2024-05-09T02:03:27.769Z,31.16
2024-05-09T02:05:58.880Z,31.20
2024-05-09T02:08:30.243Z,31.31
2024-05-09T02:11:04.658Z,31.39
2024-05-09T02:13:35.687Z,31.42
2024-05-09T02:16:07.062Z,31.46
2024-05-09T02:18:38.110Z,31.52
2024-05-09T02:21:09.258Z,31.57
2024-05-09T02:23:40.263Z,31.63
2024-05-09T02:26:14.344Z,31.65
2024-05-09T02:28:45.523Z,31.68
2024-05-09T02:31:16.571Z,31.73
2024-05-09T02:33:47.832Z,31.76
2024-05-09T02:36:19.008Z,31.81
2024-05-09T02:38:49.952Z,31.79
2024-05-09T02:41:23.882Z,31.82
2024-05-09T02:43:54.856Z,31.81
2024-05-09T02:46:25.992Z,31.83
2024-05-09T02:48:57.043Z,31.87
2024-05-09T02:51:28.233Z,31.93
2024-05-09T02:53:59.189Z,32.00
2024-05-09T02:56:33.308Z,32.09
2024-05-09T02:59:04.396Z,32.20
2024-05-09T03:01:35.517Z,32.32
2024-05-09T03:04:07.027Z,32.49
2024-05-09T03:06:42.866Z,32.61
2024-05-09T03:09:14.559Z,32.70
2024-05-09T03:11:49.584Z,32.72
2024-05-09T03:14:22.051Z,32.75
2024-05-09T03:16:53.775Z,32.77
2024-05-09T03:19:25.318Z,32.91
2024-05-09T03:21:56.863Z,33.04
2024-05-09T03:24:28.374Z,33.07
2024-05-09T03:27:03.184Z,33.10
2024-05-09T03:29:34.860Z,33.14
2024-05-09T03:32:07.075Z,33.14
2024-05-09T03:34:40.742Z,33.13
2024-05-09T03:37:12.347Z,33.12
2024-05-09T03:39:44.055Z,33.03
2024-05-09T03:42:18.775Z,33.00
2024-05-09T03:44:50.410Z,33.09
2024-05-09T03:47:22.164Z,33.21
2024-05-09T03:49:57.107Z,33.30
2024-05-09T03:52:31.144Z,33.42
2024-05-09T03:55:02.840Z,33.47
2024-05-09T03:57:37.571Z,33.52
2024-05-09T04:00:17.669Z,33.41
2024-05-09T04:02:54.434Z,33.39
2024-05-09T04:05:27.322Z,33.27
2024-05-09T04:07:58.974Z,33.26
2024-05-09T04:10:34.112Z,33.17
2024-05-09T04:13:09.067Z,33.16
2024-05-09T04:15:40.045Z,33.08
2024-05-09T04:18:11.277Z,33.00
2024-05-09T04:20:42.428Z,32.87
2024-05-09T04:23:14.928Z,32.86
2024-05-09T04:25:46.764Z,32.77
2024-05-09T04:28:21.158Z,32.75
2024-05-09T04:30:52.066Z,32.69
2024-05-09T04:33:23.203Z,32.63
2024-05-09T04:35:54.283Z,32.61
2024-05-09T04:38:25.396Z,32.68
2024-05-09T04:40:56.400Z,32.64
2024-05-09T04:43:30.405Z,32.58
2024-05-09T04:46:01.335Z,32.58
2024-05-09T04:48:32.563Z,32.60
2024-05-09T04:51:04.713Z,32.57
2024-05-09T04:53:35.673Z,32.66
2024-05-09T04:56:07.022Z,32.82
2024-05-09T04:58:41.639Z,33.01
2024-05-09T05:01:13.196Z,33.21
2024-05-09T05:03:45.083Z,33.39
2024-05-09T05:06:18.722Z,33.37
2024-05-09T05:08:50.247Z,33.50
2024-05-09T05:11:21.786Z,33.48
2024-05-09T05:13:55.794Z,33.45
2024-05-09T05:16:27.256Z,33.48
2024-05-09T05:18:58.421Z,33.55
2024-05-09T05:21:29.621Z,33.58
2024-05-09T05:24:00.612Z,33.59
2024-05-09T05:26:31.748Z,33.63
2024-05-09T05:29:07.496Z,33.76
2024-05-09T05:31:38.499Z,33.79
2024-05-09T05:34:09.490Z,33.69
2024-05-09T05:36:40.569Z,33.62
2024-05-09T05:39:11.598Z,33.72
2024-05-09T05:41:42.623Z,33.90
2024-05-09T05:44:17.663Z,33.96
2024-05-09T05:46:48.687Z,34.00
2024-05-09T05:49:19.948Z,33.93
2024-05-09T05:51:51.059Z,33.85
2024-05-09T05:54:21.950Z,33.82
2024-05-09T05:56:52.985Z,33.87
2024-05-09T05:59:30.862Z,33.92
2024-05-09T06:02:02.442Z,34.03
2024-05-09T06:04:34.029Z,34.05
2024-05-09T06:07:05.573Z,34.13
2024-05-09T06:09:37.233Z,34.21
2024-05-09T06:12:09.488Z,34.28
2024-05-09T06:14:44.273Z,34.25
2024-05-09T06:17:16.214Z,34.20
2024-05-09T06:19:48.058Z,34.20
2024-05-09T06:22:19.812Z,34.16
2024-05-09T06:24:51.515Z,34.16
2024-05-09T06:27:23.343Z,34.21
2024-05-09T06:29:58.031Z,34.28
2024-05-09T06:32:29.744Z,34.35
2024-05-09T06:35:06.904Z,34.37
2024-05-09T06:37:38.765Z,34.45
2024-05-09T06:40:12.522Z,34.41
2024-05-09T06:42:46.225Z,34.57
2024-05-09T06:45:20.991Z,34.68
2024-05-09T06:47:52.650Z,34.76
2024-05-09T06:50:28.275Z,34.71
2024-05-09T06:53:03.268Z,34.59
2024-05-09T06:55:34.795Z,34.55
2024-05-09T06:58:07.723Z,34.51
2024-05-09T07:00:42.449Z,34.44
2024-05-09T07:03:16.478Z,34.36
2024-05-09T07:05:49.983Z,34.17
2024-05-09T07:08:21.303Z,34.21
2024-05-09T07:10:52.604Z,34.21
2024-05-09T07:13:23.900Z,34.14
2024-05-09T07:15:57.898Z,34.09
2024-05-09T07:18:29.621Z,34.05
2024-05-09T07:21:00.835Z,33.97
2024-05-09T07:23:31.780Z,33.93
2024-05-09T07:26:02.911Z,33.95
2024-05-09T07:28:33.852Z,33.89
2024-05-09T07:31:08.015Z,33.90
2024-05-09T07:33:38.967Z,33.90
2024-05-09T07:36:10.278Z,33.75
2024-05-09T07:38:41.165Z,33.72
2024-05-09T07:41:12.173Z,33.70
2024-05-09T07:43:43.050Z,33.68
2024-05-09T07:47:14.314Z,33.79
2024-05-09T07:54:16.287Z,33.48
2024-05-09T07:56:47.461Z,33.41
2024-05-09T07:59:18.977Z,33.36
2024-05-09T08:01:53.859Z,33.29
2024-05-09T08:04:26.571Z,33.27
2024-05-09T08:07:01.442Z,33.29
2024-05-09T08:09:33.881Z,33.26
2024-05-09T08:12:06.523Z,33.19
2024-05-09T08:14:38.902Z,33.14
2024-05-09T08:17:14.343Z,33.23
2024-05-09T08:19:45.953Z,33.24
2024-05-09T08:22:18.658Z,33.18
2024-05-09T08:24:50.335Z,33.16
2024-05-09T08:27:21.831Z,33.17
2024-05-09T08:29:53.302Z,33.27
2024-05-09T08:32:29.019Z,33.25
2024-05-09T08:35:00.629Z,33.31
2024-05-09T08:37:36.833Z,33.34
2024-05-09T08:40:16.987Z,33.36
2024-05-09T08:42:56.571Z,33.38
2024-05-09T08:45:29.067Z,33.39
2024-05-09T08:48:07.164Z,33.43
2024-05-09T08:50:42.584Z,33.43
2024-05-09T08:53:14.422Z,33.44
2024-05-09T08:55:49.347Z,33.43
2024-05-09T08:58:21.515Z,33.44
2024-05-09T09:00:53.164Z,33.43
2024-05-09T09:03:30.216Z,33.41
2024-05-09T09:06:03.713Z,33.44
2024-05-09T09:08:35.285Z,33.43
2024-05-09T09:11:07.314Z,33.42
2024-05-09T09:13:38.809Z,33.42
2024-05-09T09:16:10.282Z,33.41
2024-05-09T09:18:51.431Z,33.38
2024-05-09T09:21:22.470Z,33.43
2024-05-09T09:23:53.412Z,33.41
2024-05-09T09:26:25.234Z,33.38
2024-05-09T09:28:56.473Z,33.40
2024-05-09T09:31:27.599Z,33.38
2024-05-09T09:34:06.988Z,33.28
2024-05-09T09:36:38.917Z,33.29
2024-05-09T09:39:13.205Z,33.30
2024-05-09T09:41:46.715Z,33.25
2024-05-09T09:44:18.736Z,33.31
2024-05-09T09:46:49.897Z,33.26
2024-05-09T09:49:24.985Z,33.25
2024-05-09T09:51:56.094Z,33.22
2024-05-09T09:54:27.636Z,33.19
2024-05-09T09:56:58.825Z,33.17
2024-05-09T09:59:32.010Z,33.22
2024-05-09T10:02:03.754Z,33.13
2024-05-09T10:04:39.891Z,33.10
2024-05-09T10:07:12.972Z,33.04
2024-05-09T10:09:44.745Z,33.04
2024-05-09T10:12:17.153Z,32.93
2024-05-09T10:14:50.671Z,32.90
2024-05-09T10:17:22.521Z,32.82
2024-05-09T10:20:14.778Z,32.77
2024-05-09T10:22:53.219Z,32.71
2024-05-09T10:25:25.370Z,32.72
2024-05-09T10:27:58.727Z,32.65
2024-05-09T10:30:35.731Z,32.53
2024-05-09T10:33:13.385Z,32.51
2024-05-09T10:35:54.332Z,32.42
2024-05-09T10:38:25.893Z,32.43
2024-05-09T10:40:59.845Z,32.47
2024-05-09T10:43:31.642Z,32.44
2024-05-09T10:46:03.256Z,32.40
2024-05-09T10:48:34.992Z,32.34
2024-05-09T10:51:09.818Z,32.28
2024-05-09T10:53:44.727Z,32.26
2024-05-09T10:56:17.534Z,32.24
2024-05-09T10:58:49.687Z,32.19
2024-05-09T11:01:20.853Z,32.14
2024-05-09T11:03:54.503Z,32.10
2024-05-09T11:06:28.785Z,32.12
2024-05-09T11:09:00.045Z,32.09
2024-05-09T11:11:31.608Z,32.05
2024-05-09T11:14:02.568Z,32.04
2024-05-09T11:16:34.101Z,32.02
2024-05-09T11:19:05.950Z,32.03
2024-05-09T11:21:40.365Z,32.03
2024-05-09T11:24:11.829Z,31.98
2024-05-09T11:26:42.875Z,31.93
2024-05-09T11:29:15.745Z,31.91
2024-05-09T11:31:51.214Z,31.87
2024-05-09T11:34:22.315Z,31.85
2024-05-09T11:36:56.219Z,31.84
2024-05-09T11:39:27.398Z,31.82
2024-05-09T11:41:58.425Z,31.82
2024-05-09T11:44:29.801Z,31.81
2024-05-09T11:47:00.758Z,31.77
2024-05-09T11:49:31.904Z,31.74
2024-05-09T11:52:06.370Z,31.74
2024-05-09T11:54:37.582Z,31.75
2024-05-09T11:57:11.049Z,31.74
2024-05-09T11:59:42.699Z,31.72
2024-05-09T12:02:14.421Z,31.62
2024-05-09T12:04:46.199Z,31.53
2024-05-09T12:07:21.132Z,31.46
2024-05-09T12:09:55.383Z,31.36
2024-05-09T12:12:26.919Z,31.32
2024-05-09T12:14:58.400Z,31.25
2024-05-09T12:17:30.609Z,31.22
2024-05-09T12:20:04.227Z,31.22
2024-05-09T12:22:39.899Z,31.18
2024-05-09T12:25:11.078Z,31.12
2024-05-09T12:27:42.170Z,31.13
2024-05-09T12:30:20.762Z,31.03
2024-05-09T12:32:59.700Z,31.09
2024-05-09T12:35:33.883Z,31.05
2024-05-09T12:38:08.058Z,30.99
2024-05-09T12:40:39.604Z,30.93
2024-05-09T12:43:11.539Z,30.89
2024-05-09T12:45:43.162Z,30.88
2024-05-09T12:48:15.018Z,30.86
2024-05-09T12:50:46.382Z,30.79
2024-05-09T12:53:20.481Z,30.71
2024-05-09T12:55:56.866Z,30.60
2024-05-09T12:58:31.754Z,30.49
2024-05-09T13:01:03.491Z,30.46
2024-05-09T13:03:35.300Z,30.46
2024-05-09T13:06:07.093Z,30.37
2024-05-09T13:08:41.918Z,30.36
2024-05-09T13:11:13.618Z,30.29
2024-05-09T13:13:45.426Z,30.30
2024-05-09T13:16:17.433Z,30.33
2024-05-09T13:18:49.265Z,30.28
2024-05-09T13:21:20.404Z,30.24
2024-05-09T13:23:55.712Z,30.22
2024-05-09T13:26:28.171Z,30.17
2024-05-09T13:28:59.212Z,30.17
2024-05-09T13:31:30.332Z,30.16
2024-05-09T13:34:01.733Z,30.18
2024-05-09T13:36:32.932Z,30.11
2024-05-09T13:39:09.401Z,30.11
2024-05-09T13:41:40.534Z,30.11
2024-05-09T13:44:11.615Z,30.13
2024-05-09T13:46:42.531Z,30.09
2024-05-09T13:49:18.135Z,30.08
2024-05-09T13:51:49.386Z,30.05
2024-05-09T13:54:23.490Z,30.07
2024-05-09T13:56:54.474Z,30.05
2024-05-09T13:59:26.074Z,30.03
2024-05-09T14:02:00.737Z,30.05
2024-05-09T14:04:32.625Z,30.03
2024-05-09T14:07:04.464Z,29.96
2024-05-09T14:09:39.484Z,30.00
2024-05-09T14:12:11.766Z,30.01
2024-05-09T14:14:43.555Z,29.96
2024-05-09T14:17:15.181Z,29.98
2024-05-09T14:19:46.893Z,30.02
2024-05-09T14:22:18.334Z,29.98
2024-05-09T14:24:52.436Z,29.95
2024-05-09T14:27:24.230Z,29.96
2024-05-09T14:29:55.808Z,29.97
2024-05-09T14:32:27.246Z,29.95
2024-05-09T14:34:58.442Z,29.96
2024-05-09T14:37:29.578Z,29.95
2024-05-09T14:40:06.891Z,29.91
2024-05-09T14:42:38.252Z,29.88
2024-05-09T14:45:09.956Z,29.89
2024-05-09T14:47:41.473Z,29.91
2024-05-09T14:50:23.678Z,29.90
2024-05-09T14:52:59.750Z,29.92
2024-05-09T14:55:39.566Z,29.97
2024-05-09T14:58:12.809Z,29.95
2024-05-09T15:00:50.870Z,29.90
2024-05-09T15:03:23.768Z,29.82
2024-05-09T15:05:58.443Z,29.84
2024-05-09T15:08:33.024Z,29.81
2024-05-09T15:11:07.930Z,29.83
2024-05-09T15:13:39.759Z,29.82
2024-05-09T15:16:11.677Z,29.83
2024-05-09T15:18:44.042Z,29.84
2024-05-09T15:21:15.748Z,29.85
2024-05-09T15:23:47.736Z,29.83
2024-05-09T15:26:22.811Z,29.84
2024-05-09T15:28:54.470Z,29.85
2024-05-09T15:31:26.342Z,29.85
2024-05-09T15:33:58.155Z,29.84
2024-05-09T15:36:30.293Z,29.83
2024-05-09T15:39:01.853Z,29.82
2024-05-09T15:41:36.548Z,29.82
2024-05-09T15:44:08.112Z,29.79
2024-05-09T15:46:39.662Z,29.80
2024-05-09T15:49:11.900Z,29.79
2024-05-09T15:51:43.663Z,29.80
2024-05-09T15:54:15.137Z,29.81
2024-05-09T15:56:52.449Z,29.77
2024-05-09T15:59:23.456Z,29.77
2024-05-09T16:01:54.505Z,29.80
2024-05-09T16:04:25.633Z,29.81
2024-05-09T16:06:56.680Z,29.80
2024-05-09T16:09:27.666Z,29.82
2024-05-09T16:12:01.575Z,29.77
2024-05-09T16:14:32.448Z,29.78
2024-05-09T16:17:03.566Z,29.79
2024-05-09T16:19:34.639Z,29.79
2024-05-09T16:22:06.011Z,29.76
2024-05-09T16:24:37.840Z,29.75
2024-05-09T16:27:12.713Z,29.72
2024-05-09T16:29:44.243Z,29.69
2024-05-09T16:32:15.895Z,29.67
2024-05-09T16:34:47.556Z,29.66
2024-05-09T16:37:19.257Z,29.68
2024-05-09T16:39:50.974Z,29.67
2024-05-09T16:42:26.138Z,29.62
2024-05-09T16:44:57.620Z,29.63
2024-05-09T16:47:29.451Z,29.63
2024-05-09T16:50:01.030Z,29.64
2024-05-09T16:52:32.691Z,29.61
2024-05-09T16:55:04.441Z,29.63
2024-05-09T16:57:38.731Z,29.64
2024-05-09T17:00:18.083Z,29.62
2024-05-09T17:02:56.711Z,29.59
2024-05-09T17:05:30.121Z,29.59
2024-05-09T17:08:01.404Z,29.56
2024-05-09T17:10:34.565Z,29.57
2024-05-09T17:13:09.650Z,29.57
2024-05-09T17:15:40.621Z,29.51
2024-05-09T17:18:11.661Z,29.54
2024-05-09T17:20:42.606Z,29.52
2024-05-09T17:23:17.268Z,29.50
2024-05-09T17:25:50.100Z,29.51
2024-05-09T17:28:24.755Z,29.47
2024-05-09T17:30:56.394Z,29.48
2024-05-09T17:33:27.994Z,29.46
2024-05-09T17:35:59.606Z,29.41
2024-05-09T17:38:31.195Z,29.43
2024-05-09T17:41:02.768Z,29.46
2024-05-09T17:43:37.442Z,29.40
2024-05-09T17:46:09.899Z,29.39
2024-05-09T17:48:41.565Z,29.41
2024-05-09T17:51:13.181Z,29.39
2024-05-09T17:53:44.717Z,29.34
2024-05-09T17:56:16.273Z,29.33
2024-05-09T17:58:50.553Z,29.37
2024-05-09T18:01:21.540Z,29.38
2024-05-09T18:03:52.658Z,29.36
2024-05-09T18:06:23.592Z,29.37
2024-05-09T18:08:54.613Z,29.34
2024-05-09T18:11:25.768Z,29.24
2024-05-09T18:14:00.569Z,29.22
2024-05-09T18:16:31.496Z,29.16
2024-05-09T18:19:02.831Z,29.17
2024-05-09T18:21:34.177Z,29.16
2024-05-09T18:24:05.240Z,29.16
2024-05-09T18:26:38.315Z,29.10
2024-05-09T18:29:13.094Z,29.06
2024-05-09T18:31:45.028Z,29.05
2024-05-09T18:34:16.584Z,29.04
2024-05-09T18:36:49.146Z,29.02
2024-05-09T18:39:21.098Z,28.97
2024-05-09T18:41:52.593Z,28.91
2024-05-09T18:44:28.606Z,28.91
2024-05-09T18:47:00.153Z,28.87
2024-05-09T18:49:31.902Z,28.85
2024-05-09T18:52:03.547Z,28.86
2024-05-09T18:54:35.383Z,28.84
2024-05-09T18:57:06.607Z,28.79
2024-05-09T18:59:40.590Z,28.77
2024-05-09T19:02:11.834Z,28.76
2024-05-09T19:04:43.154Z,28.77
2024-05-09T19:07:15.076Z,28.73
2024-05-09T19:09:49.458Z,28.70
2024-05-09T19:12:20.981Z,28.69
2024-05-09T19:14:55.621Z,28.70
2024-05-09T19:17:27.318Z,28.68
2024-05-09T19:19:58.989Z,28.70
2024-05-09T19:22:30.635Z,28.69
2024-05-09T19:25:02.448Z,28.68
2024-05-09T19:27:34.566Z,28.69
2024-05-09T19:30:17.665Z,28.71
2024-05-09T19:32:57.417Z,28.73
2024-05-09T19:35:29.085Z,28.73
2024-05-09T19:38:00.643Z,28.74
2024-05-09T19:40:34.098Z,28.73
2024-05-09T19:43:07.380Z,28.73
2024-05-09T19:45:42.246Z,28.76
2024-05-09T19:48:14.124Z,28.77
2024-05-09T19:50:48.260Z,28.75
2024-05-09T19:53:21.282Z,28.76
2024-05-09T19:55:53.022Z,28.78
2024-05-09T19:58:24.093Z,28.75
2024-05-09T20:00:58.278Z,28.74
2024-05-09T20:03:29.425Z,28.75
2024-05-09T20:06:00.553Z,28.71
2024-05-09T20:08:31.567Z,28.72
2024-05-09T20:11:02.498Z,28.72
2024-05-09T20:13:33.569Z,28.73
2024-05-09T20:16:08.408Z,28.71
2024-05-09T20:18:39.562Z,28.62
2024-05-09T20:21:10.572Z,28.69
2024-05-09T20:23:41.575Z,28.66
2024-05-09T20:26:12.631Z,28.66
2024-05-09T20:28:46.529Z,28.59
2024-05-09T20:31:23.029Z,28.63
2024-05-09T20:33:55.413Z,28.66
2024-05-09T20:36:26.912Z,28.69
2024-05-09T20:38:58.370Z,28.72
2024-05-09T20:41:33.637Z,28.69
2024-05-09T20:44:06.489Z,28.69
2024-05-09T20:46:41.130Z,28.63
2024-05-09T20:49:12.913Z,28.67
2024-05-09T20:51:44.581Z,28.67
2024-05-09T20:54:18.745Z,28.71
2024-05-09T20:56:50.403Z,28.69
2024-05-09T20:59:21.289Z,28.68
2024-05-09T21:01:55.383Z,28.70
2024-05-09T21:04:26.462Z,28.67
2024-05-09T21:06:57.562Z,28.67
2024-05-09T21:09:29.496Z,28.62
2024-05-09T21:12:00.578Z,28.62
2024-05-09T21:14:31.571Z,28.59
2024-05-09T21:17:05.829Z,28.58
2024-05-09T21:19:36.831Z,28.59
2024-05-09T21:22:07.938Z,28.57
2024-05-09T21:24:39.128Z,28.58
2024-05-09T21:27:10.093Z,28.55
2024-05-09T21:29:42.687Z,28.51
2024-05-09T21:32:16.075Z,28.52
2024-05-09T21:34:47.906Z,28.56
2024-05-09T21:37:19.516Z,28.54
2024-05-09T21:39:51.318Z,28.53
2024-05-09T21:42:22.848Z,28.51
2024-05-09T21:44:56.942Z,28.52
2024-05-09T21:47:31.737Z,28.53
2024-05-09T21:50:03.720Z,28.51
2024-05-09T21:52:36.257Z,28.54
2024-05-09T21:55:08.325Z,28.54
2024-05-09T21:57:39.217Z,28.55
2024-05-09T22:00:28.190Z,28.54
2024-05-09T22:03:10.695Z,28.54
2024-05-09T22:05:45.542Z,28.51
2024-05-09T22:08:16.663Z,28.53
2024-05-09T22:10:47.816Z,28.53
2024-05-09T22:13:20.753Z,28.53
2024-05-09T22:15:51.789Z,28.52
2024-05-09T22:18:25.896Z,28.51
2024-05-09T22:20:56.842Z,28.49
2024-05-09T22:23:27.776Z,28.45
2024-05-09T22:25:58.764Z,28.44
2024-05-09T22:28:29.867Z,28.40
2024-05-09T22:31:01.048Z,28.39
2024-05-09T22:33:35.298Z,28.39
2024-05-09T22:36:06.927Z,28.39
2024-05-09T22:38:38.220Z,28.35
2024-05-09T22:41:09.480Z,28.34
2024-05-09T22:43:40.603Z,28.28
2024-05-09T22:46:11.493Z,28.30
2024-05-09T22:48:45.631Z,28.25
2024-05-09T22:51:16.521Z,28.21
2024-05-09T22:53:47.420Z,28.23
2024-05-09T22:56:29.002Z,28.26
2024-05-09T22:59:00.518Z,28.24
2024-05-09T23:01:32.108Z,28.23
2024-05-09T23:04:07.099Z,28.20
2024-05-09T23:06:41.918Z,28.23
2024-05-09T23:09:13.782Z,28.24
2024-05-09T23:11:46.766Z,28.22
2024-05-09T23:14:18.294Z,28.23
2024-05-09T23:16:49.816Z,28.25
2024-05-09T23:19:24.527Z,28.26
2024-05-09T23:21:56.263Z,28.27
2024-05-09T23:24:27.808Z,28.30
2024-05-09T23:26:59.732Z,28.30
2024-05-09T23:29:31.261Z,28.34
2024-05-09T23:32:03.166Z,28.37
2024-05-09T23:34:38.015Z,28.37
2024-05-09T23:37:12.412Z,28.41
2024-05-09T23:39:44.104Z,28.43
2024-05-09T23:42:15.855Z,28.46
2024-05-09T23:44:47.497Z,28.49
2024-05-09T23:47:21.549Z,28.50
2024-05-09T23:49:56.287Z,28.53
2024-05-09T23:52:27.876Z,28.54
2024-05-09T23:54:59.677Z,28.57
2024-05-09T23:57:30.783Z,28.58
